createdAt,value
2019-02-15T00:01:37.875Z,16.65
2019-02-15T00:04:07.093Z,19.30
2019-02-15T00:06:36.340Z,22.62
2019-02-15T00:09:06.467Z,17.67
2019-02-15T00:11:35.616Z,15.83
2019-02-15T00:14:04.752Z,15.28
2019-02-15T00:16:34.009Z,18.35
2019-02-15T00:19:11.786Z,28.00
2019-02-15T00:21:44.189Z,16.00
2019-02-15T00:24:13.396Z,18.60
2019-02-15T00:26:42.618Z,18.57
2019-02-15T00:29:11.790Z,13.08
2019-02-15T00:31:41.088Z,19.73
2019-02-15T00:34:10.306Z,22.55
2019-02-15T00:36:39.474Z,14.05
2019-02-15T00:39:08.896Z,20.27
2019-02-15T00:41:39.923Z,24.87
2019-02-15T00:44:09.174Z,22.98
2019-02-15T00:47:12.672Z,13.75
2019-02-15T00:50:08.026Z,21.42
2019-02-15T00:53:11.266Z,18.55
2019-02-15T00:56:06.974Z,27.42
2019-02-15T00:58:57.907Z,18.87
2019-02-15T01:01:58.140Z,18.80
2019-02-15T01:05:01.456Z,25.48
2019-02-15T01:08:04.785Z,26.85
2019-02-15T01:10:43.079Z,18.20
2019-02-15T01:13:15.797Z,20.95
2019-02-15T01:15:45.028Z,22.62
2019-02-15T01:18:14.261Z,19.35
2019-02-15T01:20:43.637Z,19.27
2019-02-15T01:23:12.905Z,12.75
2019-02-15T01:25:55.228Z,10.90
2019-02-15T01:28:43.027Z,20.30
2019-02-15T01:31:46.279Z,32.23
2019-02-15T01:34:46.642Z,16.23
2019-02-15T01:37:28.744Z,14.00
2019-02-15T01:40:22.882Z,19.85
2019-02-15T01:42:59.554Z,17.42
2019-02-15T01:45:35.264Z,14.68
2019-02-15T01:48:04.680Z,19.27
2019-02-15T01:50:33.970Z,15.65
2019-02-15T01:53:03.109Z,26.07
2019-02-15T01:55:32.288Z,25.77
2019-02-15T01:58:02.545Z,30.23
2019-02-15T02:00:34.259Z,19.05
2019-02-15T02:03:03.479Z,20.43
2019-02-15T02:05:32.783Z,21.45
2019-02-15T02:08:02.447Z,20.80
2019-02-15T02:10:31.730Z,23.75
2019-02-15T02:13:00.970Z,17.00
2019-02-15T02:15:30.152Z,20.43
2019-02-15T02:17:59.278Z,21.00
2019-02-15T02:20:28.452Z,17.48
2019-02-15T02:22:57.670Z,14.03
2019-02-15T02:25:26.887Z,26.52
2019-02-15T02:27:56.100Z,13.55
2019-02-15T02:30:25.368Z,13.03
2019-02-15T02:32:54.592Z,19.77
2019-02-15T02:35:23.810Z,15.10
2019-02-15T02:37:53.068Z,20.48
2019-02-15T02:40:22.286Z,18.73
2019-02-15T02:42:51.569Z,15.13
2019-02-15T02:45:20.994Z,18.05
2019-02-15T02:47:50.228Z,17.07
2019-02-15T02:50:19.447Z,13.05
2019-02-15T02:52:48.964Z,13.43
2019-02-15T02:55:18.099Z,17.82
2019-02-15T02:57:47.314Z,19.25
2019-02-15T03:00:17.115Z,18.27
2019-02-15T03:02:46.263Z,14.83
2019-02-15T03:05:15.526Z,16.45
2019-02-15T03:07:44.689Z,23.27
2019-02-15T03:10:13.970Z,13.48
2019-02-15T03:12:43.116Z,14.33
2019-02-15T03:15:14.185Z,14.55
2019-02-15T03:17:43.440Z,17.85
2019-02-15T03:20:12.601Z,18.27
2019-02-15T03:22:41.931Z,19.73
2019-02-15T03:25:11.228Z,18.23
2019-02-15T03:27:40.531Z,26.57
2019-02-15T03:30:10.270Z,12.28
2019-02-15T03:32:39.548Z,16.93
2019-02-15T03:35:09.979Z,20.90
2019-02-15T03:38:02.205Z,18.05
2019-02-15T03:40:36.397Z,13.32
2019-02-15T03:43:05.729Z,18.27
2019-02-15T03:45:34.950Z,14.53
2019-02-15T03:48:04.165Z,23.07
2019-02-15T03:50:33.477Z,14.23
2019-02-15T03:53:02.629Z,17.10
2019-02-15T03:55:31.771Z,20.62
2019-02-15T03:58:01.152Z,17.57
2019-02-15T04:00:30.477Z,23.15
2019-02-15T04:02:59.748Z,12.93
2019-02-15T04:05:29.013Z,18.82
2019-02-15T04:07:58.530Z,16.20
2019-02-15T04:10:27.768Z,21.12
2019-02-15T04:12:57.014Z,18.70
2019-02-15T04:15:26.681Z,25.20
2019-02-15T04:17:55.903Z,13.18
2019-02-15T04:20:25.156Z,25.08
2019-02-15T04:22:54.369Z,16.80
2019-02-15T04:25:23.670Z,13.30
2019-02-15T04:27:53.068Z,20.02
2019-02-15T04:30:22.300Z,15.18
2019-02-15T04:32:51.605Z,14.13
2019-02-15T04:35:20.946Z,19.75
2019-02-15T04:37:50.276Z,17.87
2019-02-15T04:40:19.478Z,19.70
2019-02-15T04:42:48.671Z,17.77
2019-02-15T04:45:17.987Z,13.13
2019-02-15T04:47:47.213Z,22.45
2019-02-15T04:50:16.784Z,15.80
2019-02-15T04:52:46.081Z,17.90
2019-02-15T04:55:15.674Z,18.25
2019-02-15T04:57:44.944Z,16.60
2019-02-15T05:00:14.162Z,15.75
2019-02-15T05:02:43.329Z,16.30
2019-02-15T05:05:12.656Z,20.27
2019-02-15T05:07:41.813Z,18.48
2019-02-15T05:10:10.997Z,27.15
2019-02-15T05:12:40.197Z,25.57
2019-02-15T05:15:09.790Z,13.38
2019-02-15T05:17:39.043Z,18.70
2019-02-15T05:20:08.616Z,22.62
2019-02-15T05:22:37.828Z,17.60
2019-02-15T05:25:07.264Z,14.03
2019-02-15T05:27:36.541Z,14.33
2019-02-15T05:30:06.056Z,21.55
2019-02-15T05:32:35.305Z,18.32
2019-02-15T05:35:04.682Z,32.42
2019-02-15T05:37:33.900Z,17.70
2019-02-15T05:40:03.046Z,14.87
2019-02-15T05:42:32.421Z,22.22
2019-02-15T05:45:04.266Z,17.77
2019-02-15T05:47:32.696Z,17.52
2019-02-15T05:50:02.086Z,18.00
2019-02-15T05:52:31.394Z,13.55
2019-02-15T05:55:00.563Z,20.05
2019-02-15T05:57:29.892Z,16.50
2019-02-15T05:59:59.109Z,19.77
2019-02-15T06:02:28.581Z,17.92
2019-02-15T06:04:57.740Z,16.05
2019-02-15T06:07:27.143Z,14.10
2019-02-15T06:09:56.394Z,12.50
2019-02-15T06:12:25.639Z,17.77
2019-02-15T06:14:54.870Z,18.80
2019-02-15T06:17:24.173Z,21.77
2019-02-15T06:19:53.413Z,25.68
2019-02-15T06:22:22.676Z,17.80
2019-02-15T06:24:51.845Z,15.00
2019-02-15T06:27:21.177Z,11.15
2019-02-15T06:29:50.417Z,18.20
2019-02-15T06:32:19.634Z,19.60
2019-02-15T06:34:48.877Z,14.85
2019-02-15T06:37:18.417Z,13.65
2019-02-15T06:39:47.735Z,29.30
2019-02-15T06:42:17.070Z,18.55
2019-02-15T06:44:46.444Z,25.05
2019-02-15T06:47:15.638Z,18.12
2019-02-15T06:49:45.331Z,13.88
2019-02-15T06:52:14.633Z,12.23
2019-02-15T06:54:43.873Z,26.27
2019-02-15T06:57:13.305Z,12.85
2019-02-15T07:00:16.780Z,19.27
2019-02-15T07:02:54.075Z,21.00
2019-02-15T07:05:25.641Z,19.10
2019-02-15T07:07:55.385Z,18.80
2019-02-15T07:10:24.980Z,21.48
2019-02-15T07:12:54.365Z,27.20
2019-02-15T07:15:23.660Z,23.80
2019-02-15T07:17:52.996Z,17.85
2019-02-15T07:20:22.215Z,23.35
2019-02-15T07:22:51.890Z,19.98
2019-02-15T07:25:21.243Z,17.37
2019-02-15T07:27:50.552Z,18.60
2019-02-15T07:30:20.118Z,28.60
2019-02-15T07:32:49.443Z,24.43
2019-02-15T07:35:18.672Z,27.07
2019-02-15T07:37:47.903Z,23.57
2019-02-15T07:40:17.150Z,22.20
2019-02-15T07:42:46.362Z,20.92
2019-02-15T07:45:17.666Z,19.87
2019-02-15T07:47:46.582Z,18.27
2019-02-15T07:50:15.817Z,27.93
2019-02-15T07:52:44.975Z,28.75
2019-02-15T07:55:14.630Z,25.97
2019-02-15T07:57:43.925Z,25.40
2019-02-15T08:00:14.342Z,29.07
2019-02-15T08:02:43.603Z,22.60
2019-02-15T08:05:12.857Z,24.25
2019-02-15T08:07:42.159Z,44.83
2019-02-15T08:10:11.706Z,21.97
2019-02-15T08:12:41.114Z,37.67
2019-02-15T08:15:10.661Z,32.28
2019-02-15T08:17:39.983Z,41.23
2019-02-15T08:20:10.525Z,44.20
2019-02-15T08:22:39.818Z,29.15
2019-02-15T08:25:09.547Z,40.95
2019-02-15T08:27:38.856Z,54.05
2019-02-15T08:30:09.635Z,66.00
2019-02-15T08:32:38.820Z,28.98
2019-02-15T08:35:09.126Z,40.08
2019-02-15T08:37:38.389Z,33.38
2019-02-15T08:40:08.793Z,39.30
2019-02-15T08:42:38.046Z,26.45
2019-02-15T08:45:08.917Z,31.73
2019-02-15T08:47:39.798Z,19.73
2019-02-15T08:50:10.291Z,39.67
2019-02-15T08:52:39.587Z,39.85
2019-02-15T08:55:09.775Z,21.25
2019-02-15T08:57:39.007Z,32.05
2019-02-15T09:00:09.468Z,21.65
2019-02-15T09:02:38.682Z,54.10
2019-02-15T09:05:09.753Z,26.60
2019-02-15T09:07:38.999Z,42.80
2019-02-15T09:10:10.109Z,13.85
2019-02-15T09:12:39.407Z,30.30
2019-02-15T09:15:12.025Z,16.48
2019-02-15T09:17:41.377Z,19.60
2019-02-15T09:20:11.502Z,15.65
2019-02-15T09:22:40.708Z,20.50
2019-02-15T09:25:10.475Z,28.92
2019-02-15T09:27:44.156Z,18.15
2019-02-15T09:30:14.765Z,17.70
2019-02-15T09:32:44.254Z,15.43
2019-02-15T09:35:13.423Z,29.45
2019-02-15T09:37:42.699Z,15.43
2019-02-15T09:40:11.999Z,25.97
2019-02-15T09:42:41.226Z,18.87
2019-02-15T09:45:11.912Z,23.40
2019-02-15T09:47:41.155Z,17.85
2019-02-15T09:50:12.140Z,20.20
2019-02-15T09:52:41.278Z,22.52
2019-02-15T09:55:10.428Z,25.12
2019-02-15T09:57:39.670Z,20.10
2019-02-15T10:00:09.017Z,20.65
2019-02-15T10:02:39.048Z,38.55
2019-02-15T10:05:08.360Z,29.70
2019-02-15T10:07:37.846Z,11.05
2019-02-15T10:10:07.429Z,13.18
2019-02-15T10:12:36.579Z,15.48
2019-02-15T10:15:06.225Z,14.65
2019-02-15T10:17:35.508Z,10.00
2019-02-15T10:20:05.197Z,13.08
2019-02-15T10:22:34.492Z,9.63
2019-02-15T10:25:04.149Z,21.35
2019-02-15T10:27:33.374Z,9.38
2019-02-15T10:30:02.775Z,10.23
2019-02-15T10:32:32.352Z,11.97
2019-02-15T10:35:01.645Z,7.40
2019-02-15T10:37:30.886Z,9.18
2019-02-15T10:40:00.320Z,10.00
2019-02-15T10:42:29.782Z,7.75
2019-02-15T10:44:59.091Z,16.67
2019-02-15T10:47:28.371Z,16.85
2019-02-15T10:49:57.589Z,7.45
2019-02-15T10:52:26.837Z,5.55
2019-02-15T10:54:56.153Z,7.33
2019-02-15T10:57:25.388Z,6.28
2019-02-15T10:59:54.642Z,5.67
2019-02-15T11:02:23.854Z,7.60
2019-02-15T11:04:53.193Z,5.42
2019-02-15T11:07:22.417Z,10.15
2019-02-15T11:09:51.720Z,6.90
2019-02-15T11:12:21.052Z,4.28
2019-02-15T11:14:50.296Z,4.45
2019-02-15T11:17:19.510Z,5.47
2019-02-15T11:19:48.726Z,4.53
2019-02-15T11:22:17.982Z,3.60
2019-02-15T11:24:47.588Z,6.87
2019-02-15T11:27:16.898Z,5.30
2019-02-15T11:29:46.150Z,6.10
2019-02-15T11:32:15.439Z,4.10
2019-02-15T11:34:44.593Z,4.10
2019-02-15T11:37:13.835Z,12.13
2019-02-15T11:39:43.093Z,4.00
2019-02-15T11:42:12.319Z,9.93
2019-02-15T11:44:41.657Z,5.60
2019-02-15T11:47:10.899Z,4.97
2019-02-15T11:49:40.151Z,5.43
2019-02-15T11:52:09.849Z,9.80
2019-02-15T11:54:39.111Z,4.20
2019-02-15T11:57:08.366Z,5.63
2019-02-15T11:59:37.622Z,6.00
2019-02-15T12:02:06.861Z,3.90
2019-02-15T12:04:36.181Z,5.10
2019-02-15T12:07:05.507Z,4.20
2019-02-15T12:09:34.752Z,9.20
2019-02-15T12:12:10.438Z,3.80
2019-02-15T12:14:35.214Z,3.77
2019-02-15T12:17:05.908Z,5.83
2019-02-15T12:19:35.347Z,4.53
2019-02-15T12:22:04.530Z,4.30
2019-02-15T12:24:33.885Z,4.20
2019-02-15T12:27:03.111Z,4.33
2019-02-15T12:29:32.445Z,3.70
2019-02-15T12:32:01.750Z,3.47
2019-02-15T12:34:30.959Z,4.00
2019-02-15T12:37:00.360Z,5.47
2019-02-15T12:39:29.585Z,8.50
2019-02-15T12:41:58.832Z,6.43
2019-02-15T12:44:28.094Z,7.10
2019-02-15T12:46:57.324Z,4.70
2019-02-15T12:49:26.522Z,7.23
2019-02-15T12:51:55.862Z,4.43
2019-02-15T12:54:25.132Z,4.13
2019-02-15T12:56:54.393Z,4.13
2019-02-15T12:59:24.046Z,3.63
2019-02-15T13:01:53.349Z,3.80
2019-02-15T13:04:22.578Z,6.73
2019-02-15T13:06:51.827Z,4.77
2019-02-15T13:09:21.064Z,4.33
2019-02-15T13:11:50.348Z,4.23
2019-02-15T13:14:19.670Z,5.40
2019-02-15T13:16:48.911Z,3.97
2019-02-15T13:19:18.225Z,4.17
2019-02-15T13:21:47.487Z,3.90
2019-02-15T13:24:16.787Z,3.80
2019-02-15T13:26:46.003Z,4.47
2019-02-15T13:29:15.329Z,4.23
2019-02-15T13:31:44.619Z,3.70
2019-02-15T13:34:13.792Z,4.57
2019-02-15T13:36:43.117Z,5.20
2019-02-15T13:39:12.351Z,4.40
2019-02-15T13:41:41.645Z,4.33
2019-02-15T13:44:11.008Z,4.23
2019-02-15T13:46:40.215Z,4.93
2019-02-15T13:49:09.451Z,7.70
2019-02-15T13:51:39.078Z,5.27
2019-02-15T13:54:08.206Z,3.80
2019-02-15T13:56:37.356Z,3.47
2019-02-15T13:59:06.641Z,4.50
2019-02-15T14:01:35.819Z,5.93
2019-02-15T14:04:05.070Z,7.03
2019-02-15T14:06:34.395Z,4.50
2019-02-15T14:09:04.915Z,4.77
2019-02-15T14:11:34.135Z,4.10
2019-02-15T14:14:03.378Z,3.57
2019-02-15T14:16:32.659Z,3.77
2019-02-15T14:19:01.841Z,3.93
2019-02-15T14:21:31.105Z,3.87
2019-02-15T14:24:00.337Z,5.00
2019-02-15T14:26:29.644Z,4.03
2019-02-15T14:28:58.936Z,4.00
2019-02-15T14:31:28.157Z,6.60
2019-02-15T14:33:57.402Z,3.50
2019-02-15T14:36:26.829Z,7.10
2019-02-15T14:38:56.165Z,4.60
2019-02-15T14:41:25.408Z,3.77
2019-02-15T14:43:54.680Z,4.40
2019-02-15T14:46:23.975Z,5.03
2019-02-15T14:48:53.295Z,7.43
2019-02-15T14:51:22.925Z,5.73
2019-02-15T14:53:52.138Z,8.03
2019-02-15T14:56:21.373Z,4.13
2019-02-15T14:58:50.552Z,4.00
2019-02-15T15:01:19.764Z,7.70
2019-02-15T15:03:49.007Z,5.60
2019-02-15T15:06:18.318Z,3.37
2019-02-15T15:08:47.540Z,5.70
2019-02-15T15:11:16.767Z,4.30
2019-02-15T15:13:46.023Z,4.77
2019-02-15T15:16:15.413Z,4.97
2019-02-15T15:18:44.548Z,3.90
2019-02-15T15:21:14.232Z,4.37
2019-02-15T15:23:43.447Z,5.20
2019-02-15T15:26:12.595Z,4.27
2019-02-15T15:28:41.904Z,6.23
2019-02-15T15:31:11.278Z,6.23
2019-02-15T15:33:40.734Z,4.40
2019-02-15T15:36:09.947Z,9.10
2019-02-15T15:38:39.107Z,4.23
2019-02-15T15:41:08.319Z,3.53
2019-02-15T15:43:37.510Z,3.53
2019-02-15T15:46:06.726Z,4.73
2019-02-15T15:48:35.879Z,2.70
2019-02-15T15:51:05.120Z,3.33
2019-02-15T15:53:34.284Z,4.40
2019-02-15T15:56:03.551Z,2.90
2019-02-15T15:58:32.820Z,3.87
2019-02-15T16:01:01.988Z,9.63
2019-02-15T16:03:31.274Z,15.33
2019-02-15T16:06:00.534Z,7.23
2019-02-15T16:08:29.740Z,8.53
2019-02-15T16:10:58.992Z,20.63
2019-02-15T16:13:28.247Z,12.90
2019-02-15T16:15:57.563Z,21.43
2019-02-15T16:18:34.582Z,25.47
2019-02-15T16:20:57.747Z,21.63
2019-02-15T16:23:26.971Z,18.57
2019-02-15T16:25:56.141Z,14.43
2019-02-15T16:28:25.383Z,11.37
2019-02-15T16:30:54.698Z,23.53
2019-02-15T16:33:24.016Z,20.93
2019-02-15T16:35:53.214Z,25.10
2019-02-15T16:38:22.358Z,15.93
2019-02-15T16:43:21.515Z,23.70
2019-02-15T16:45:50.785Z,13.17
2019-02-15T16:48:20.158Z,11.27
2019-02-15T16:50:49.427Z,17.57
2019-02-15T16:53:18.664Z,11.13
2019-02-15T16:55:48.100Z,18.23
2019-02-15T16:58:17.413Z,12.87
2019-02-15T17:00:46.728Z,29.70
2019-02-15T17:03:16.053Z,28.53
2019-02-15T17:05:45.256Z,34.23
2019-02-15T17:08:14.558Z,43.90
2019-02-15T17:10:43.722Z,32.07
2019-02-15T17:13:12.963Z,31.50
2019-02-15T17:15:42.262Z,17.97
2019-02-15T17:18:11.504Z,37.73
2019-02-15T17:20:40.800Z,42.17
2019-02-15T17:23:10.117Z,32.75
2019-02-15T17:25:39.349Z,11.20
2019-02-15T17:28:08.702Z,28.97
2019-02-15T17:30:37.980Z,33.23
2019-02-15T17:33:07.310Z,22.20
2019-02-15T17:35:36.612Z,28.40
2019-02-15T17:38:05.853Z,39.05
2019-02-15T17:40:35.153Z,28.27
2019-02-15T17:43:04.440Z,17.90
2019-02-15T17:45:33.667Z,12.13
2019-02-15T17:48:02.927Z,22.15
2019-02-15T17:50:32.288Z,14.40
2019-02-15T17:53:01.602Z,30.82
2019-02-15T17:55:30.819Z,21.55
2019-02-15T17:58:00.089Z,20.43
2019-02-15T18:00:31.127Z,21.23
2019-02-15T18:03:00.354Z,12.00
2019-02-15T18:05:29.561Z,17.20
2019-02-15T18:07:58.908Z,10.58
2019-02-15T18:10:28.231Z,13.80
2019-02-15T18:12:57.476Z,8.13
2019-02-15T18:15:26.838Z,12.23
2019-02-15T18:17:56.160Z,22.00
2019-02-15T18:20:25.487Z,24.72
2019-02-15T18:22:54.725Z,38.63
2019-02-15T18:25:23.997Z,13.15
2019-02-15T18:27:53.363Z,11.60
2019-02-15T18:30:22.681Z,24.67
2019-02-15T18:32:51.943Z,15.20
2019-02-15T18:35:21.259Z,24.60
2019-02-15T18:37:50.555Z,14.60
2019-02-15T18:40:19.788Z,5.65
2019-02-15T18:42:49.041Z,17.00
2019-02-15T18:45:18.226Z,20.32
2019-02-15T18:47:47.484Z,12.95
2019-02-15T18:50:16.805Z,12.55
2019-02-15T18:52:46.036Z,11.35
2019-02-15T18:55:15.279Z,13.35
2019-02-15T18:57:44.649Z,12.07
2019-02-15T19:00:16.172Z,22.52
2019-02-15T19:02:45.643Z,19.02
2019-02-15T19:05:15.065Z,16.00
2019-02-15T19:07:44.256Z,10.70
2019-02-15T19:10:15.691Z,20.77
2019-02-15T19:12:44.966Z,29.10
2019-02-15T19:15:14.886Z,15.75
2019-02-15T19:17:44.121Z,23.25
2019-02-15T19:20:13.954Z,32.78
2019-02-15T19:22:43.384Z,36.53
2019-02-15T19:25:13.124Z,30.23
2019-02-15T19:27:42.492Z,16.65
2019-02-15T19:30:14.625Z,18.57
2019-02-15T19:32:43.963Z,26.75
2019-02-15T19:35:13.754Z,29.67
2019-02-15T19:37:43.008Z,25.45
2019-02-15T19:40:13.003Z,27.90
2019-02-15T19:42:43.957Z,25.97
2019-02-15T19:45:13.183Z,29.35
2019-02-15T19:47:42.408Z,19.77
2019-02-15T19:50:13.164Z,25.60
2019-02-15T19:52:42.629Z,25.02
2019-02-15T19:55:11.941Z,24.75
2019-02-15T19:57:41.206Z,16.40
2019-02-15T20:00:15.265Z,27.00
2019-02-15T20:02:44.656Z,31.15
2019-02-15T20:05:13.982Z,20.72
2019-02-15T20:07:43.280Z,23.98
2019-02-15T20:10:14.945Z,18.57
2019-02-15T20:12:44.177Z,12.03
2019-02-15T20:15:13.692Z,10.75
2019-02-15T20:17:42.892Z,8.63
2019-02-15T20:20:12.918Z,17.10
2019-02-15T20:22:42.243Z,14.53
2019-02-15T20:25:11.763Z,12.73
2019-02-15T20:27:41.007Z,10.65
2019-02-15T20:30:13.011Z,6.17
2019-02-15T20:32:42.285Z,7.35
2019-02-15T20:35:13.466Z,6.17
2019-02-15T20:37:42.590Z,8.00
2019-02-15T20:40:11.924Z,5.50
2019-02-15T20:42:41.212Z,7.08
2019-02-15T20:45:13.238Z,5.85
2019-02-15T20:47:42.487Z,6.42
2019-02-15T20:50:11.664Z,6.78
2019-02-15T20:52:40.999Z,7.37
2019-02-15T20:55:11.993Z,9.53
2019-02-15T20:57:41.281Z,5.90
2019-02-15T21:00:13.302Z,9.38
2019-02-15T21:02:42.646Z,5.97
2019-02-15T21:05:11.940Z,6.72
2019-02-15T21:07:41.171Z,5.95
2019-02-15T21:10:11.146Z,8.05
2019-02-15T21:12:40.476Z,12.40
2019-02-15T21:15:10.509Z,7.03
2019-02-15T21:17:39.767Z,7.47
2019-02-15T21:20:10.413Z,7.62
2019-02-15T21:22:39.647Z,6.33
2019-02-15T21:25:10.593Z,11.65
2019-02-15T21:27:39.824Z,11.25
2019-02-15T21:30:11.381Z,7.92
2019-02-15T21:32:40.728Z,10.30
2019-02-15T21:35:10.048Z,7.80
2019-02-15T21:37:39.335Z,10.85
2019-02-15T21:40:10.297Z,13.00
2019-02-15T21:42:39.771Z,13.20
2019-02-15T21:45:09.950Z,6.35
2019-02-15T21:47:39.208Z,10.32
2019-02-15T21:50:16.711Z,10.75
2019-02-15T21:52:44.181Z,7.65
2019-02-15T21:55:11.051Z,10.08
2019-02-15T21:57:40.363Z,11.88
2019-02-15T22:00:12.512Z,8.15
2019-02-15T22:02:41.806Z,10.50
2019-02-15T22:05:11.043Z,6.58
2019-02-15T22:07:40.247Z,6.37
2019-02-15T22:10:09.676Z,9.85
2019-02-15T22:12:38.908Z,7.67
2019-02-15T22:15:09.755Z,12.00
2019-02-15T22:17:39.006Z,7.70
2019-02-15T22:20:09.399Z,9.08
2019-02-15T22:22:38.542Z,7.33
2019-02-15T22:25:07.905Z,6.70
2019-02-15T22:27:37.112Z,9.43
2019-02-15T22:30:07.963Z,7.80
2019-02-15T22:32:37.496Z,7.10
2019-02-15T22:35:07.248Z,8.53
2019-02-15T22:37:36.417Z,7.30
2019-02-15T22:40:41.011Z,9.50
2019-02-15T22:43:16.107Z,6.12
2019-02-15T22:45:45.563Z,6.62
2019-02-15T22:48:14.840Z,6.95
2019-02-15T22:50:44.157Z,9.48
2019-02-15T22:53:13.422Z,12.60
2019-02-15T22:55:42.636Z,11.68
2019-02-15T22:58:11.873Z,11.28
2019-02-15T23:00:58.261Z,13.38
2019-02-15T23:03:27.940Z,11.57
2019-02-15T23:05:57.286Z,8.28
2019-02-15T23:08:26.634Z,6.75
2019-02-15T23:10:55.939Z,7.67
2019-02-15T23:13:25.172Z,10.78
2019-02-15T23:15:55.203Z,13.85
2019-02-15T23:18:24.862Z,10.45
2019-02-15T23:20:54.090Z,10.13
2019-02-15T23:23:23.301Z,29.98
2019-02-15T23:25:52.543Z,12.88
2019-02-15T23:28:21.797Z,11.28
2019-02-15T23:30:51.078Z,10.13
2019-02-15T23:33:20.295Z,11.57
2019-02-15T23:35:49.643Z,16.05
2019-02-15T23:38:19.019Z,13.53
2019-02-15T23:40:48.223Z,9.05
2019-02-15T23:43:17.531Z,19.92
2019-02-15T23:45:46.775Z,11.95
2019-02-15T23:48:16.036Z,20.95
2019-02-15T23:50:53.996Z,8.50
2019-02-15T23:53:16.324Z,11.33
2019-02-15T23:55:45.519Z,12.10
2019-02-15T23:58:14.837Z,17.32
